Aberdaron, United Kingdom

7:40 AM BST on August 28, 2015 (GMT +0100)
Nefyn | | Change Station
CLOSE
Current Station
Personal Weather Station
Location: Nefyn, Gwynedd
Elevation: 131 ft
Nearby Weather Stations

Elev 131 ft 52.93 °N, 4.53 °W | Updated 44 seconds ago

Partly Cloudy
Partly Cloudy
54.0 °F
Feels Like 54.0 °F
N
2.2
Wind Variable Wind from South
Gusts 3.8 mph

Today
High -- | Low -- °F
--% Chance of Precip.
Yesterday
High -- | Low -- °F
Precip. -- in
6:21 AM 8:17 PM
Waxing Gibbous, 97% visible
Pressure 29.80 in
Visibility 6.2 miles
Clouds Few 2000 ft
Dew Point 52 °F
Humidity 92%
Rainfall 0.00 in
Snow Depth Not available.
UV 0 out of 12
Pollen Not available.
Air Quality Not available.
Flu Activity Not available.
METAR EGOV 280550Z 21015KT 9999 FEW020 14/11 Q1009 BLU NOSIG
Pressure 29.80 in
Visibility 6.2 miles
Clouds Few 2000 ft
Dew Point 52 °F
Humidity 92%
Rainfall 0.00 in
Snow Depth Not available.
UV 0 out of 12
Pollen Not available.
Air Quality Not available.
Flu Activity Not available.
METAR EGOV 280550Z 21015KT 9999 FEW020 14/11 Q1009 BLU NOSIG

10-Day Weather Forecast

×

Almanac

Astronomy

Aug. 28, 2015 Rise Set
Actual Time
Civil Twilight
Nautical Twilight
Astronomical Twilight
Moon
Length of Visible Light
Length of Day
Tomorrow will be .
, % of the Moon is Illuminated

Today's Extremes

Country Highs Country Lows

Community

WunderPhotos

Upload Photos

1,850,341 photos uploaded!

WunderBlogs® & News

Nearby

Air Quality

  Air Quality AQ Index Pollutant
Not available.

Snow Depth

Station Depth Elevation

Earthquake Activity

City Distance Mag. Time & Date
Minimum magnitude displayed is 2.5.

Coastal Water Temperatures

Place Temperature

Stations

Nearby Weather Stations

Station Location Temp. Windchill Dew Point Humidity Wind Precip. Elev Updated Type